sensor_id;sensor_type;location;lat;lon;timestamp;temperature;humidity
26272;DHT22;13997;48.902;12.472;2022-12-07T00:01:09;77.30;2227.20
26272;DHT22;13997;48.902;12.472;2022-12-07T00:03:36;77.40;2227.20
26272;DHT22;13997;48.902;12.472;2022-12-07T00:06:02;77.30;2227.20
26272;DHT22;13997;48.902;12.472;2022-12-07T00:08:29;77.30;2227.20
26272;DHT22;13997;48.902;12.472;2022-12-07T00:10:55;77.30;2227.20
26272;DHT22;13997;48.902;12.472;2022-12-07T00:13:20;77.30;2227.20
26272;DHT22;13997;48.902;12.472;2022-12-07T00:15:46;77.30;2227.20
26272;DHT22;13997;48.902;12.472;2022-12-07T00:18:11;77.30;2227.20
26272;DHT22;13997;48.902;12.472;2022-12-07T00:20:37;77.30;2227.20
26272;DHT22;13997;48.902;12.472;2022-12-07T00:23:03;77.30;2227.20
26272;DHT22;13997;48.902;12.472;2022-12-07T00:25:30;77.30;2227.20
26272;DHT22;13997;48.902;12.472;2022-12-07T00:27:55;77.30;2227.20
26272;DHT22;13997;48.902;12.472;2022-12-07T00:30:23;77.30;2227.20
26272;DHT22;13997;48.902;12.472;2022-12-07T00:32:48;77.30;2227.20
26272;DHT22;13997;48.902;12.472;2022-12-07T00:35:14;77.30;2227.20
26272;DHT22;13997;48.902;12.472;2022-12-07T00:37:40;77.30;2227.20
26272;DHT22;13997;48.902;12.472;2022-12-07T00:40:06;77.30;2227.20
26272;DHT22;13997;48.902;12.472;2022-12-07T00:42:33;77.30;2227.20
26272;DHT22;13997;48.902;12.472;2022-12-07T00:44:59;77.30;2227.20
26272;DHT22;13997;48.902;12.472;2022-12-07T00:47:24;77.30;2227.20
26272;DHT22;13997;48.902;12.472;2022-12-07T00:49:50;77.30;2227.20
26272;DHT22;13997;48.902;12.472;2022-12-07T00:52:16;77.30;2227.20
26272;DHT22;13997;48.902;12.472;2022-12-07T00:54:41;77.40;2227.20
26272;DHT22;13997;48.902;12.472;2022-12-07T00:57:07;77.40;2227.20
26272;DHT22;13997;48.902;12.472;2022-12-07T00:59:32;77.30;2227.20
26272;DHT22;13997;48.902;12.472;2022-12-07T01:01:58;77.30;2227.20
26272;DHT22;13997;48.902;12.472;2022-12-07T01:04:24;77.20;2227.20
26272;DHT22;13997;48.902;12.472;2022-12-07T01:06:49;77.30;2227.20
26272;DHT22;13997;48.902;12.472;2022-12-07T01:09:15;77.20;2227.20
26272;DHT22;13997;48.902;12.472;2022-12-07T01:11:41;77.30;2227.20
26272;DHT22;13997;48.902;12.472;2022-12-07T01:14:06;77.30;2227.20
26272;DHT22;13997;48.902;12.472;2022-12-07T01:16:32;77.20;2227.20
26272;DHT22;13997;48.902;12.472;2022-12-07T01:18:59;77.20;2227.20
26272;DHT22;13997;48.902;12.472;2022-12-07T01:21:31;77.20;2227.20
26272;DHT22;13997;48.902;12.472;2022-12-07T01:24:00;77.30;2227.20
26272;DHT22;13997;48.902;12.472;2022-12-07T01:26:26;77.30;2227.20
26272;DHT22;13997;48.902;12.472;2022-12-07T01:28:52;77.30;2227.20
26272;DHT22;13997;48.902;12.472;2022-12-07T01:31:21;77.30;2227.20
26272;DHT22;13997;48.902;12.472;2022-12-07T01:33:51;77.30;2227.20
26272;DHT22;13997;48.902;12.472;2022-12-07T01:36:19;77.30;2227.20
26272;DHT22;13997;48.902;12.472;2022-12-07T01:38:46;77.30;2227.20
26272;DHT22;13997;48.902;12.472;2022-12-07T01:41:12;77.20;2227.20
26272;DHT22;13997;48.902;12.472;2022-12-07T01:44:10;77.30;2227.20
26272;DHT22;13997;48.902;12.472;2022-12-07T01:46:36;77.30;2227.20
26272;DHT22;13997;48.902;12.472;2022-12-07T01:49:04;77.20;2227.20
26272;DHT22;13997;48.902;12.472;2022-12-07T01:51:30;77.20;2227.20
26272;DHT22;13997;48.902;12.472;2022-12-07T01:53:56;77.20;2227.20
26272;DHT22;13997;48.902;12.472;2022-12-07T01:56:25;77.20;2227.20
26272;DHT22;13997;48.902;12.472;2022-12-07T01:58:52;77.20;2227.20
26272;DHT22;13997;48.902;12.472;2022-12-07T02:01:20;77.20;2227.20
26272;DHT22;13997;48.902;12.472;2022-12-07T02:03:46;77.30;2227.20
26272;DHT22;13997;48.902;12.472;2022-12-07T02:06:16;77.30;2227.20
26272;DHT22;13997;48.902;12.472;2022-12-07T02:08:43;77.30;2227.20
26272;DHT22;13997;48.902;12.472;2022-12-07T02:11:09;77.30;2227.20
26272;DHT22;13997;48.902;12.472;2022-12-07T02:13:36;77.30;2227.20
26272;DHT22;13997;48.902;12.472;2022-12-07T02:16:19;77.40;2227.20
26272;DHT22;13997;48.902;12.472;2022-12-07T02:26:50;77.20;2227.20
26272;DHT22;13997;48.902;12.472;2022-12-07T02:29:33;77.20;2227.20
26272;DHT22;13997;48.902;12.472;2022-12-07T02:37:41;77.10;2227.20
26272;DHT22;13997;48.902;12.472;2022-12-07T02:40:18;77.10;2227.20
26272;DHT22;13997;48.902;12.472;2022-12-07T02:42:49;77.10;2227.20
26272;DHT22;13997;48.902;12.472;2022-12-07T02:45:17;77.10;2227.20
26272;DHT22;13997;48.902;12.472;2022-12-07T02:47:46;77.10;2227.20
26272;DHT22;13997;48.902;12.472;2022-12-07T02:50:12;77.10;2227.20
26272;DHT22;13997;48.902;12.472;2022-12-07T02:52:38;77.10;2227.20
26272;DHT22;13997;48.902;12.472;2022-12-07T02:55:04;77.10;2227.20
26272;DHT22;13997;48.902;12.472;2022-12-07T02:58:05;77.10;2227.20
26272;DHT22;13997;48.902;12.472;2022-12-07T03:00:26;77.10;2227.20
26272;DHT22;13997;48.902;12.472;2022-12-07T03:03:03;77.10;2227.20
26272;DHT22;13997;48.902;12.472;2022-12-07T03:11:16;77.00;2227.20
26272;DHT22;13997;48.902;12.472;2022-12-07T03:13:50;77.00;2227.20
26272;DHT22;13997;48.902;12.472;2022-12-07T03:16:37;77.00;2227.20
26272;DHT22;13997;48.902;12.472;2022-12-07T03:19:08;77.00;2227.20
26272;DHT22;13997;48.902;12.472;2022-12-07T03:21:39;77.00;2227.20
26272;DHT22;13997;48.902;12.472;2022-12-07T03:24:15;77.10;2227.20
26272;DHT22;13997;48.902;12.472;2022-12-07T03:26:45;77.10;2227.20
26272;DHT22;13997;48.902;12.472;2022-12-07T03:29:19;77.00;2227.20
26272;DHT22;13997;48.902;12.472;2022-12-07T03:31:49;77.00;2227.20
26272;DHT22;13997;48.902;12.472;2022-12-07T03:34:25;77.00;2227.20
26272;DHT22;13997;48.902;12.472;2022-12-07T03:37:08;77.00;2227.20
26272;DHT22;13997;48.902;12.472;2022-12-07T03:39:45;77.00;2227.20
26272;DHT22;13997;48.902;12.472;2022-12-07T03:42:11;76.90;2227.20
26272;DHT22;13997;48.902;12.472;2022-12-07T03:44:38;76.90;2227.20
26272;DHT22;13997;48.902;12.472;2022-12-07T03:47:16;76.90;2227.20
26272;DHT22;13997;48.902;12.472;2022-12-07T03:49:50;77.00;2227.20
26272;DHT22;13997;48.902;12.472;2022-12-07T03:52:23;76.90;2227.20
26272;DHT22;13997;48.902;12.472;2022-12-07T03:54:56;76.90;2227.20
26272;DHT22;13997;48.902;12.472;2022-12-07T03:57:24;76.80;2227.20
26272;DHT22;13997;48.902;12.472;2022-12-07T03:59:51;76.80;2227.20
26272;DHT22;13997;48.902;12.472;2022-12-07T04:02:18;76.80;2227.20
26272;DHT22;13997;48.902;12.472;2022-12-07T04:04:45;76.80;2227.20
26272;DHT22;13997;48.902;12.472;2022-12-07T04:07:11;76.80;2227.20
26272;DHT22;13997;48.902;12.472;2022-12-07T04:09:36;76.80;2227.20
26272;DHT22;13997;48.902;12.472;2022-12-07T04:12:02;76.80;2227.20
26272;DHT22;13997;48.902;12.472;2022-12-07T04:14:27;76.80;2227.20
26272;DHT22;13997;48.902;12.472;2022-12-07T04:16:58;76.80;2227.20
26272;DHT22;13997;48.902;12.472;2022-12-07T04:19:31;52.10;2227.20
26272;DHT22;13997;48.902;12.472;2022-12-07T04:21:59;52.10;2227.20
26272;DHT22;13997;48.902;12.472;2022-12-07T04:24:26;52.10;2227.20
26272;DHT22;13997;48.902;12.472;2022-12-07T04:26:52;52.10;2227.20
26272;DHT22;13997;48.902;12.472;2022-12-07T04:29:18;52.10;2227.20
26272;DHT22;13997;48.902;12.472;2022-12-07T04:31:44;52.10;2227.20
26272;DHT22;13997;48.902;12.472;2022-12-07T04:34:11;52.10;2227.20
26272;DHT22;13997;48.902;12.472;2022-12-07T04:36:37;76.80;2227.20
26272;DHT22;13997;48.902;12.472;2022-12-07T04:39:04;76.80;2227.20
26272;DHT22;13997;48.902;12.472;2022-12-07T04:41:30;76.90;2227.20
26272;DHT22;13997;48.902;12.472;2022-12-07T04:44:00;76.80;2227.20
26272;DHT22;13997;48.902;12.472;2022-12-07T04:46:28;76.80;2227.20
26272;DHT22;13997;48.902;12.472;2022-12-07T04:48:54;76.80;2227.20
26272;DHT22;13997;48.902;12.472;2022-12-07T04:51:22;76.90;2227.20
26272;DHT22;13997;48.902;12.472;2022-12-07T04:53:48;76.90;2227.20
26272;DHT22;13997;48.902;12.472;2022-12-07T04:56:15;76.90;2227.20
26272;DHT22;13997;48.902;12.472;2022-12-07T04:58:42;76.90;2227.20
26272;DHT22;13997;48.902;12.472;2022-12-07T05:01:08;76.80;2227.20
26272;DHT22;13997;48.902;12.472;2022-12-07T05:03:35;76.90;2227.20
26272;DHT22;13997;48.902;12.472;2022-12-07T05:06:01;76.90;2227.20
26272;DHT22;13997;48.902;12.472;2022-12-07T05:08:26;76.90;2227.20
26272;DHT22;13997;48.902;12.472;2022-12-07T05:10:52;76.90;2227.20
26272;DHT22;13997;48.902;12.472;2022-12-07T05:13:17;76.90;2227.20
26272;DHT22;13997;48.902;12.472;2022-12-07T05:15:43;76.90;2227.20
26272;DHT22;13997;48.902;12.472;2022-12-07T05:18:10;76.90;2227.20
26272;DHT22;13997;48.902;12.472;2022-12-07T05:20:41;76.90;2227.20
26272;DHT22;13997;48.902;12.472;2022-12-07T05:23:07;76.80;2227.20
26272;DHT22;13997;48.902;12.472;2022-12-07T05:25:33;76.80;2227.20
26272;DHT22;13997;48.902;12.472;2022-12-07T05:27:59;76.80;2227.20
26272;DHT22;13997;48.902;12.472;2022-12-07T05:30:27;76.80;2227.20
26272;DHT22;13997;48.902;12.472;2022-12-07T05:32:53;52.10;2227.20
26272;DHT22;13997;48.902;12.472;2022-12-07T05:35:19;52.10;2227.20
26272;DHT22;13997;48.902;12.472;2022-12-07T05:37:45;52.00;2227.20
26272;DHT22;13997;48.902;12.472;2022-12-07T05:40:11;52.00;2227.20
26272;DHT22;13997;48.902;12.472;2022-12-07T05:42:38;52.00;2227.20
26272;DHT22;13997;48.902;12.472;2022-12-07T05:45:04;52.00;2227.20
26272;DHT22;13997;48.902;12.472;2022-12-07T05:47:30;52.00;2227.20
26272;DHT22;13997;48.902;12.472;2022-12-07T05:49:55;52.00;2227.20
26272;DHT22;13997;48.902;12.472;2022-12-07T05:52:21;52.00;2227.20
26272;DHT22;13997;48.902;12.472;2022-12-07T05:54:47;52.00;2227.20
26272;DHT22;13997;48.902;12.472;2022-12-07T05:57:12;52.10;2227.20
26272;DHT22;13997;48.902;12.472;2022-12-07T05:59:38;52.10;2227.20
26272;DHT22;13997;48.902;12.472;2022-12-07T06:02:09;52.10;2227.20
26272;DHT22;13997;48.902;12.472;2022-12-07T06:04:43;52.00;2227.20
26272;DHT22;13997;48.902;12.472;2022-12-07T06:07:10;52.00;2227.20
26272;DHT22;13997;48.902;12.472;2022-12-07T06:09:37;52.00;2227.20
26272;DHT22;13997;48.902;12.472;2022-12-07T06:12:03;51.90;2227.20
26272;DHT22;13997;48.902;12.472;2022-12-07T06:14:47;51.90;2227.20
26272;DHT22;13997;48.902;12.472;2022-12-07T06:17:14;51.80;2227.20
26272;DHT22;13997;48.902;12.472;2022-12-07T06:19:40;51.80;2227.20
26272;DHT22;13997;48.902;12.472;2022-12-07T06:22:06;51.80;2227.20
26272;DHT22;13997;48.902;12.472;2022-12-07T06:24:33;51.80;2227.20
26272;DHT22;13997;48.902;12.472;2022-12-07T06:26:58;51.70;2227.20
26272;DHT22;13997;48.902;12.472;2022-12-07T06:29:24;51.70;2227.20
26272;DHT22;13997;48.902;12.472;2022-12-07T06:31:50;51.60;2227.20
26272;DHT22;13997;48.902;12.472;2022-12-07T06:34:19;51.50;2227.20
26272;DHT22;13997;48.902;12.472;2022-12-07T06:36:46;51.40;2227.20
26272;DHT22;13997;48.902;12.472;2022-12-07T06:39:17;51.30;2227.20
26272;DHT22;13997;48.902;12.472;2022-12-07T06:41:43;51.30;2227.20
26272;DHT22;13997;48.902;12.472;2022-12-07T06:44:08;51.20;2227.20
26272;DHT22;13997;48.902;12.472;2022-12-07T06:46:34;51.20;2227.20
26272;DHT22;13997;48.902;12.472;2022-12-07T06:49:04;51.20;2227.20
26272;DHT22;13997;48.902;12.472;2022-12-07T06:51:30;51.20;2227.20
26272;DHT22;13997;48.902;12.472;2022-12-07T06:53:56;51.20;2227.20
26272;DHT22;13997;48.902;12.472;2022-12-07T06:56:21;26.50;2201.60
26272;DHT22;13997;48.902;12.472;2022-12-07T06:58:48;26.50;2201.60
26272;DHT22;13997;48.902;12.472;2022-12-07T07:01:15;26.50;2201.60
26272;DHT22;13997;48.902;12.472;2022-12-07T07:03:42;26.50;2201.60
26272;DHT22;13997;48.902;12.472;2022-12-07T07:06:08;26.50;2201.60
26272;DHT22;13997;48.902;12.472;2022-12-07T07:08:38;26.50;2201.60
26272;DHT22;13997;48.902;12.472;2022-12-07T07:11:05;51.20;2227.20
26272;DHT22;13997;48.902;12.472;2022-12-07T07:13:32;26.50;2201.60
26272;DHT22;13997;48.902;12.472;2022-12-07T07:15:58;51.20;2227.20
26272;DHT22;13997;48.902;12.472;2022-12-07T07:18:24;51.20;2227.20
26272;DHT22;13997;48.902;12.472;2022-12-07T07:20:51;51.20;2227.20
26272;DHT22;13997;48.902;12.472;2022-12-07T07:23:17;51.20;2227.20
26272;DHT22;13997;48.902;12.472;2022-12-07T07:25:42;51.20;2227.20
26272;DHT22;13997;48.902;12.472;2022-12-07T07:28:08;51.20;2227.20
26272;DHT22;13997;48.902;12.472;2022-12-07T07:30:34;51.20;2227.20
26272;DHT22;13997;48.902;12.472;2022-12-07T07:33:03;51.20;2227.20
26272;DHT22;13997;48.902;12.472;2022-12-07T07:35:30;51.20;2227.20
26272;DHT22;13997;48.902;12.472;2022-12-07T07:37:56;51.20;2227.20
26272;DHT22;13997;48.902;12.472;2022-12-07T07:40:22;51.30;2227.20
26272;DHT22;13997;48.902;12.472;2022-12-07T07:42:50;51.30;2227.20
26272;DHT22;13997;48.902;12.472;2022-12-07T07:45:17;51.40;2227.20
26272;DHT22;13997;48.902;12.472;2022-12-07T07:47:42;51.40;2227.20
26272;DHT22;13997;48.902;12.472;2022-12-07T07:50:08;51.50;2227.20
26272;DHT22;13997;48.902;12.472;2022-12-07T07:52:34;51.50;2227.20
26272;DHT22;13997;48.902;12.472;2022-12-07T07:55:00;51.60;2227.20
26272;DHT22;13997;48.902;12.472;2022-12-07T07:57:25;51.60;2227.20
26272;DHT22;13997;48.902;12.472;2022-12-07T07:59:51;51.70;2227.20
26272;DHT22;13997;48.902;12.472;2022-12-07T08:02:18;51.70;2227.20
26272;DHT22;13997;48.902;12.472;2022-12-07T08:04:45;51.80;2227.20
26272;DHT22;13997;48.902;12.472;2022-12-07T08:07:12;51.80;2227.20
26272;DHT22;13997;48.902;12.472;2022-12-07T08:09:38;51.80;2227.20
26272;DHT22;13997;48.902;12.472;2022-12-07T08:12:04;51.90;2227.20
26272;DHT22;13997;48.902;12.472;2022-12-07T08:14:29;52.00;2227.20
26272;DHT22;13997;48.902;12.472;2022-12-07T08:16:55;52.10;2227.20
26272;DHT22;13997;48.902;12.472;2022-12-07T08:19:21;52.10;2227.20
26272;DHT22;13997;48.902;12.472;2022-12-07T08:21:46;52.10;2227.20
26272;DHT22;13997;48.902;12.472;2022-12-07T08:24:13;52.10;2227.20
26272;DHT22;13997;48.902;12.472;2022-12-07T08:26:39;52.10;2227.20
26272;DHT22;13997;48.902;12.472;2022-12-07T08:29:04;52.10;2227.20
26272;DHT22;13997;48.902;12.472;2022-12-07T08:31:30;52.10;2227.20
26272;DHT22;13997;48.902;12.472;2022-12-07T08:33:55;52.10;2227.20
26272;DHT22;13997;48.902;12.472;2022-12-07T08:36:21;52.10;2227.20
26272;DHT22;13997;48.902;12.472;2022-12-07T08:38:48;76.80;2227.20
26272;DHT22;13997;48.902;12.472;2022-12-07T08:41:14;76.80;2227.20
26272;DHT22;13997;48.902;12.472;2022-12-07T08:43:39;76.90;2227.20
26272;DHT22;13997;48.902;12.472;2022-12-07T08:46:28;76.90;2227.20
26272;DHT22;13997;48.902;12.472;2022-12-07T08:49:05;77.00;2227.20
26272;DHT22;13997;48.902;12.472;2022-12-07T08:51:31;77.10;2227.20
26272;DHT22;13997;48.902;12.472;2022-12-07T08:53:58;77.20;2227.20
26272;DHT22;13997;48.902;12.472;2022-12-07T08:56:26;77.20;2227.20
26272;DHT22;13997;48.902;12.472;2022-12-07T08:58:52;77.40;2227.20
26272;DHT22;13997;48.902;12.472;2022-12-07T09:01:18;77.40;2227.20
26272;DHT22;13997;48.902;12.472;2022-12-07T09:03:43;77.50;2227.20
26272;DHT22;13997;48.902;12.472;2022-12-07T09:06:09;77.50;2227.20
26272;DHT22;13997;48.902;12.472;2022-12-07T09:08:39;77.50;2227.20
26272;DHT22;13997;48.902;12.472;2022-12-07T09:11:06;77.50;2227.20
26272;DHT22;13997;48.902;12.472;2022-12-07T09:13:32;77.50;2227.20
26272;DHT22;13997;48.902;12.472;2022-12-07T09:15:57;77.50;2227.20
26272;DHT22;13997;48.902;12.472;2022-12-07T09:18:23;77.50;2227.20
26272;DHT22;13997;48.902;12.472;2022-12-07T09:20:50;77.50;2227.20
26272;DHT22;13997;48.902;12.472;2022-12-07T09:23:16;77.60;2227.20
26272;DHT22;13997;48.902;12.472;2022-12-07T09:25:42;77.60;2227.20
26272;DHT22;13997;48.902;12.472;2022-12-07T09:28:08;77.50;2227.20
26272;DHT22;13997;48.902;12.472;2022-12-07T09:30:34;77.60;2227.20
26272;DHT22;13997;48.902;12.472;2022-12-07T09:32:59;77.70;2227.20
26272;DHT22;13997;48.902;12.472;2022-12-07T09:35:26;77.70;2227.20
26272;DHT22;13997;48.902;12.472;2022-12-07T09:37:51;102.40;2227.20
26272;DHT22;13997;48.902;12.472;2022-12-07T09:40:19;102.40;2227.20
26272;DHT22;13997;48.902;12.472;2022-12-07T09:42:48;102.50;2227.20
26272;DHT22;13997;48.902;12.472;2022-12-07T09:45:18;102.50;2227.20
26272;DHT22;13997;48.902;12.472;2022-12-07T09:47:45;102.60;2227.20
26272;DHT22;13997;48.902;12.472;2022-12-07T09:50:21;102.70;2227.20
26272;DHT22;13997;48.902;12.472;2022-12-07T09:52:48;102.70;2227.20
26272;DHT22;13997;48.902;12.472;2022-12-07T09:55:21;102.70;2227.20
26272;DHT22;13997;48.902;12.472;2022-12-07T09:57:49;102.80;2227.20
26272;DHT22;13997;48.902;12.472;2022-12-07T10:00:18;102.80;2227.20
26272;DHT22;13997;48.902;12.472;2022-12-07T10:02:52;102.90;2227.20
26272;DHT22;13997;48.902;12.472;2022-12-07T10:05:28;102.90;2227.20
26272;DHT22;13997;48.902;12.472;2022-12-07T10:07:55;103.00;2227.20
26272;DHT22;13997;48.902;12.472;2022-12-07T10:10:35;102.90;2227.20
26272;DHT22;13997;48.902;12.472;2022-12-07T10:13:15;102.90;2227.20
26272;DHT22;13997;48.902;12.472;2022-12-07T10:15:45;102.90;2227.20
26272;DHT22;13997;48.902;12.472;2022-12-07T10:18:38;102.80;2227.20
26272;DHT22;13997;48.902;12.472;2022-12-07T10:21:13;102.80;2227.20
26272;DHT22;13997;48.902;12.472;2022-12-07T10:23:41;102.70;2227.20
26272;DHT22;13997;48.902;12.472;2022-12-07T10:26:34;102.70;2227.20
26272;DHT22;13997;48.902;12.472;2022-12-07T10:29:04;102.60;2227.20
26272;DHT22;13997;48.902;12.472;2022-12-07T10:31:40;102.50;2227.20
26272;DHT22;13997;48.902;12.472;2022-12-07T10:34:22;102.50;2227.20
26272;DHT22;13997;48.902;12.472;2022-12-07T10:36:50;102.50;2227.20
26272;DHT22;13997;48.902;12.472;2022-12-07T10:39:21;102.60;2227.20
26272;DHT22;13997;48.902;12.472;2022-12-07T10:41:58;102.60;2227.20
26272;DHT22;13997;48.902;12.472;2022-12-07T10:44:27;102.60;2227.20
26272;DHT22;13997;48.902;12.472;2022-12-07T10:55:19;102.60;2227.20
26272;DHT22;13997;48.902;12.472;2022-12-07T11:00:53;102.70;2227.20
26272;DHT22;13997;48.902;12.472;2022-12-07T11:06:22;102.70;2227.20
26272;DHT22;13997;48.902;12.472;2022-12-07T11:14:31;102.70;2227.20
26272;DHT22;13997;48.902;12.472;2022-12-07T11:17:20;102.60;2227.20
26272;DHT22;13997;48.902;12.472;2022-12-07T11:20:13;102.60;2227.20
26272;DHT22;13997;48.902;12.472;2022-12-07T11:22:59;102.60;2227.20
26272;DHT22;13997;48.902;12.472;2022-12-07T11:31:18;102.60;2227.20
26272;DHT22;13997;48.902;12.472;2022-12-07T11:33:53;102.60;2227.20
26272;DHT22;13997;48.902;12.472;2022-12-07T11:36:44;102.50;2227.20
26272;DHT22;13997;48.902;12.472;2022-12-07T11:39:37;102.50;2227.20
26272;DHT22;13997;48.902;12.472;2022-12-07T11:42:57;102.60;2227.20
26272;DHT22;13997;48.902;12.472;2022-12-07T11:45:20;102.60;2227.20
26272;DHT22;13997;48.902;12.472;2022-12-07T11:47:53;102.60;2227.20
26272;DHT22;13997;48.902;12.472;2022-12-07T11:52:58;102.70;2227.20
26272;DHT22;13997;48.902;12.472;2022-12-07T12:01:35;102.70;2227.20
26272;DHT22;13997;48.902;12.472;2022-12-07T12:06:37;102.70;2227.20
26272;DHT22;13997;48.902;12.472;2022-12-07T12:27:54;102.90;2227.20
26272;DHT22;13997;48.902;12.472;2022-12-07T12:30:33;102.90;2227.20
26272;DHT22;13997;48.902;12.472;2022-12-07T12:44:38;102.90;2227.20
26272;DHT22;13997;48.902;12.472;2022-12-07T12:46:59;102.90;2227.20
26272;DHT22;13997;48.902;12.472;2022-12-07T12:52:00;103.00;2227.20
26272;DHT22;13997;48.902;12.472;2022-12-07T12:54:31;103.00;2227.20
26272;DHT22;13997;48.902;12.472;2022-12-07T12:57:29;103.00;2227.20
26272;DHT22;13997;48.902;12.472;2022-12-07T12:59:58;103.00;2227.20
26272;DHT22;13997;48.902;12.472;2022-12-07T13:07:51;103.00;2227.20
26272;DHT22;13997;48.902;12.472;2022-12-07T13:15:49;103.10;2227.20
26272;DHT22;13997;48.902;12.472;2022-12-07T13:26:00;103.20;2227.20
26272;DHT22;13997;48.902;12.472;2022-12-07T13:28:38;103.20;2227.20
26272;DHT22;13997;48.902;12.472;2022-12-07T13:31:19;103.20;2227.20
26272;DHT22;13997;48.902;12.472;2022-12-07T13:33:47;103.10;2227.20
26272;DHT22;13997;48.902;12.472;2022-12-07T13:36:24;103.00;2227.20
26272;DHT22;13997;48.902;12.472;2022-12-07T13:39:11;103.00;2227.20
26272;DHT22;13997;48.902;12.472;2022-12-07T13:41:41;103.00;2227.20
26272;DHT22;13997;48.902;12.472;2022-12-07T13:44:13;102.90;2227.20
26272;DHT22;13997;48.902;12.472;2022-12-07T13:49:37;102.90;2227.20
26272;DHT22;13997;48.902;12.472;2022-12-07T13:52:16;102.90;2227.20
26272;DHT22;13997;48.902;12.472;2022-12-07T13:57:32;102.90;2227.20
26272;DHT22;13997;48.902;12.472;2022-12-07T14:00:15;102.90;2227.20
26272;DHT22;13997;48.902;12.472;2022-12-07T14:05:41;103.00;2227.20
26272;DHT22;13997;48.902;12.472;2022-12-07T14:10:58;103.00;2227.20
26272;DHT22;13997;48.902;12.472;2022-12-07T14:13:39;102.90;2227.20
26272;DHT22;13997;48.902;12.472;2022-12-07T14:16:23;102.90;2227.20
26272;DHT22;13997;48.902;12.472;2022-12-07T14:18:50;102.90;2227.20
26272;DHT22;13997;48.902;12.472;2022-12-07T14:21:19;102.90;2227.20
26272;DHT22;13997;48.902;12.472;2022-12-07T14:23:47;102.90;2227.20
26272;DHT22;13997;48.902;12.472;2022-12-07T14:26:27;102.90;2227.20
26272;DHT22;13997;48.902;12.472;2022-12-07T14:28:52;102.90;2227.20
26272;DHT22;13997;48.902;12.472;2022-12-07T14:31:22;102.80;2227.20
26272;DHT22;13997;48.902;12.472;2022-12-07T14:33:49;102.80;2227.20
26272;DHT22;13997;48.902;12.472;2022-12-07T14:36:15;102.80;2227.20
26272;DHT22;13997;48.902;12.472;2022-12-07T14:38:41;102.80;2227.20
26272;DHT22;13997;48.902;12.472;2022-12-07T14:41:13;102.80;2227.20
26272;DHT22;13997;48.902;12.472;2022-12-07T14:43:58;102.80;2227.20
26272;DHT22;13997;48.902;12.472;2022-12-07T14:46:24;102.80;2227.20
26272;DHT22;13997;48.902;12.472;2022-12-07T14:48:49;102.90;2227.20
26272;DHT22;13997;48.902;12.472;2022-12-07T14:51:15;102.90;2227.20
26272;DHT22;13997;48.902;12.472;2022-12-07T14:53:45;102.90;2227.20
26272;DHT22;13997;48.902;12.472;2022-12-07T14:56:11;102.90;2227.20
26272;DHT22;13997;48.902;12.472;2022-12-07T14:58:37;103.00;2227.20
26272;DHT22;13997;48.902;12.472;2022-12-07T15:01:03;103.00;2227.20
26272;DHT22;13997;48.902;12.472;2022-12-07T15:03:29;103.00;2227.20
26272;DHT22;13997;48.902;12.472;2022-12-07T15:05:55;103.00;2227.20
26272;DHT22;13997;48.902;12.472;2022-12-07T15:08:20;103.00;2227.20
26272;DHT22;13997;48.902;12.472;2022-12-07T15:10:46;103.00;2227.20
26272;DHT22;13997;48.902;12.472;2022-12-07T15:13:12;103.00;2227.20
26272;DHT22;13997;48.902;12.472;2022-12-07T15:15:56;103.00;2227.20
26272;DHT22;13997;48.902;12.472;2022-12-07T15:18:23;103.00;2227.20
26272;DHT22;13997;48.902;12.472;2022-12-07T15:20:49;103.00;2227.20
26272;DHT22;13997;48.902;12.472;2022-12-07T15:23:15;103.00;2227.20
26272;DHT22;13997;48.902;12.472;2022-12-07T15:25:42;103.00;2227.20
26272;DHT22;13997;48.902;12.472;2022-12-07T15:28:07;103.00;2227.20
26272;DHT22;13997;48.902;12.472;2022-12-07T15:30:33;102.90;2227.20
26272;DHT22;13997;48.902;12.472;2022-12-07T15:32:59;102.80;2227.20
26272;DHT22;13997;48.902;12.472;2022-12-07T15:35:24;102.80;2227.20
26272;DHT22;13997;48.902;12.472;2022-12-07T15:37:50;102.70;2227.20
26272;DHT22;13997;48.902;12.472;2022-12-07T15:40:16;102.70;2227.20
26272;DHT22;13997;48.902;12.472;2022-12-07T15:42:41;102.70;2227.20
26272;DHT22;13997;48.902;12.472;2022-12-07T15:45:08;102.70;2227.20
26272;DHT22;13997;48.902;12.472;2022-12-07T15:47:42;102.70;2227.20
26272;DHT22;13997;48.902;12.472;2022-12-07T15:50:11;102.70;2227.20
26272;DHT22;13997;48.902;12.472;2022-12-07T15:52:37;102.70;2227.20
26272;DHT22;13997;48.902;12.472;2022-12-07T15:55:03;102.80;2227.20
26272;DHT22;13997;48.902;12.472;2022-12-07T15:57:30;102.80;2227.20
26272;DHT22;13997;48.902;12.472;2022-12-07T15:59:56;102.80;2227.20
26272;DHT22;13997;48.902;12.472;2022-12-07T16:02:22;102.90;2227.20
26272;DHT22;13997;48.902;12.472;2022-12-07T16:04:50;102.90;2227.20
26272;DHT22;13997;48.902;12.472;2022-12-07T16:07:16;102.90;2227.20
26272;DHT22;13997;48.902;12.472;2022-12-07T16:09:44;102.90;2227.20
26272;DHT22;13997;48.902;12.472;2022-12-07T16:12:10;102.90;2227.20
26272;DHT22;13997;48.902;12.472;2022-12-07T16:14:39;102.90;2227.20
26272;DHT22;13997;48.902;12.472;2022-12-07T16:17:05;102.90;2227.20
26272;DHT22;13997;48.902;12.472;2022-12-07T16:19:31;102.90;2227.20
26272;DHT22;13997;48.902;12.472;2022-12-07T16:21:57;102.90;2227.20
26272;DHT22;13997;48.902;12.472;2022-12-07T16:24:23;102.90;2227.20
26272;DHT22;13997;48.902;12.472;2022-12-07T16:26:49;102.90;2227.20
26272;DHT22;13997;48.902;12.472;2022-12-07T16:29:16;102.90;2227.20
26272;DHT22;13997;48.902;12.472;2022-12-07T16:31:42;102.80;2227.20
26272;DHT22;13997;48.902;12.472;2022-12-07T16:34:08;102.80;2227.20
26272;DHT22;13997;48.902;12.472;2022-12-07T16:36:34;102.80;2227.20
26272;DHT22;13997;48.902;12.472;2022-12-07T16:39:00;102.80;2227.20
26272;DHT22;13997;48.902;12.472;2022-12-07T16:41:26;102.80;2227.20
26272;DHT22;13997;48.902;12.472;2022-12-07T16:43:52;102.80;2227.20
26272;DHT22;13997;48.902;12.472;2022-12-07T16:46:18;102.80;2227.20
26272;DHT22;13997;48.902;12.472;2022-12-07T16:48:44;102.80;2227.20
26272;DHT22;13997;48.902;12.472;2022-12-07T16:51:12;102.70;2227.20
26272;DHT22;13997;48.902;12.472;2022-12-07T16:53:41;102.70;2227.20